Terminal Aerodrome Forecast
Issued by NWS

Home | Current Version | Previous Version | Text Only | Print | Product List | Glossary On
Versions: 1 2 3 4 5 6 7 8 9 10 11 12 13 14 15 16 17 18 19 20 21 22
000
FTUS43 KAPX 301200 AAA
TAFTVC
TAF AMD
KTVC 301258Z 3013/3112 VRB03KT P6SM BKN008
      TEMPO 3013/3016 SCT008
     FM301600 34008KT P6SM FEW060 SCT250
     FM310200 00000KT P6SM BKN070=

USA.gov is the U.S. government's official web portal to all federal, state and local government web resources and services.